createdAt,value
2019-05-20T00:02:04.381Z,13.83
2019-05-20T00:04:33.260Z,14.47
2019-05-20T00:07:02.112Z,14.53
2019-05-20T00:09:30.988Z,15.03
2019-05-20T00:11:59.833Z,14.17
2019-05-20T00:14:28.720Z,15.10
2019-05-20T00:16:57.553Z,14.57
2019-05-20T00:19:26.454Z,13.57
2019-05-20T00:21:55.367Z,14.13
2019-05-20T00:24:24.265Z,14.57
2019-05-20T00:26:53.137Z,13.60
2019-05-20T00:29:22.019Z,13.73
2019-05-20T00:31:50.955Z,14.90
2019-05-20T00:34:34.215Z,14.60
2019-05-20T00:36:50.486Z,13.63
2019-05-20T00:39:20.250Z,12.10
2019-05-20T00:41:49.443Z,12.77
2019-05-20T00:44:18.668Z,13.50
2019-05-20T00:46:47.579Z,13.33
2019-05-20T00:49:16.428Z,13.70
2019-05-20T00:51:45.687Z,14.63
2019-05-20T00:54:14.595Z,13.40
2019-05-20T00:56:43.580Z,13.33
2019-05-20T00:59:12.442Z,14.27
2019-05-20T01:01:41.328Z,13.17
2019-05-20T01:04:10.204Z,12.37
2019-05-20T01:06:39.082Z,14.13
2019-05-20T01:09:08.237Z,13.13
2019-05-20T01:11:37.120Z,14.50
2019-05-20T01:14:06.404Z,13.17
2019-05-20T01:16:35.266Z,14.70
2019-05-20T01:19:04.122Z,13.20
2019-05-20T01:21:33.008Z,14.40
2019-05-20T01:24:01.869Z,13.53
2019-05-20T01:26:30.732Z,13.33
2019-05-20T01:28:59.588Z,12.90
2019-05-20T01:31:28.478Z,13.17
2019-05-20T01:33:57.453Z,14.20
2019-05-20T01:36:26.353Z,13.67
2019-05-20T01:38:55.205Z,14.07
2019-05-20T01:41:24.129Z,14.23
2019-05-20T01:43:53.009Z,13.23
2019-05-20T01:46:21.898Z,12.07
2019-05-20T01:48:50.787Z,13.13
2019-05-20T01:51:19.667Z,14.43
2019-05-20T01:53:48.603Z,12.63
2019-05-20T01:56:17.465Z,14.17
2019-05-20T01:58:46.311Z,14.13
2019-05-20T02:01:15.223Z,13.30
2019-05-20T02:03:44.075Z,13.90
2019-05-20T02:06:12.998Z,13.80
2019-05-20T02:08:41.846Z,15.10
2019-05-20T02:11:10.735Z,13.87
2019-05-20T02:13:58.353Z,12.93
2019-05-20T02:16:27.426Z,12.87
2019-05-20T02:18:56.251Z,13.70
2019-05-20T02:21:25.135Z,14.30
2019-05-20T02:23:54.019Z,14.13
2019-05-20T02:26:23.043Z,14.43
2019-05-20T02:28:51.940Z,14.40
2019-05-20T02:31:20.824Z,13.67
2019-05-20T02:33:52.477Z,14.47
2019-05-20T02:36:20.319Z,14.70
2019-05-20T02:38:49.192Z,15.30
2019-05-20T02:41:18.081Z,13.53
2019-05-20T02:43:47.019Z,13.17
2019-05-20T02:46:15.961Z,14.33
2019-05-20T02:48:44.896Z,13.97
2019-05-20T02:51:13.786Z,14.63
2019-05-20T02:53:42.697Z,13.80
2019-05-20T02:56:11.606Z,14.90
2019-05-20T02:58:40.457Z,14.50
2019-05-20T03:01:09.318Z,15.83
2019-05-20T03:03:38.204Z,14.87
2019-05-20T03:06:07.056Z,14.17
2019-05-20T03:08:35.996Z,14.80
2019-05-20T03:11:04.855Z,14.47
2019-05-20T03:13:33.727Z,15.57
2019-05-20T03:16:02.583Z,14.70
2019-05-20T03:18:31.475Z,15.00
2019-05-20T03:21:00.329Z,15.97
2019-05-20T03:23:29.304Z,13.97
2019-05-20T03:25:58.153Z,14.70
2019-05-20T03:28:27.043Z,14.30
2019-05-20T03:30:55.962Z,14.17
2019-05-20T03:33:24.858Z,15.63
2019-05-20T03:35:53.675Z,15.10
2019-05-20T03:38:22.540Z,14.93
2019-05-20T03:40:51.406Z,14.70
2019-05-20T03:43:20.292Z,15.40
2019-05-20T03:45:49.177Z,15.43
2019-05-20T03:48:18.076Z,14.50
2019-05-20T03:50:47.029Z,14.60
2019-05-20T03:53:15.912Z,15.77
2019-05-20T03:55:44.861Z,14.67
2019-05-20T03:58:14.140Z,14.57
2019-05-20T04:00:44.460Z,15.07
2019-05-20T04:03:13.890Z,16.57
2019-05-20T04:05:42.845Z,15.70
2019-05-20T04:08:11.851Z,16.17
2019-05-20T04:10:40.701Z,15.30
2019-05-20T04:13:09.631Z,14.87
2019-05-20T04:15:38.727Z,14.53
2019-05-20T04:18:07.584Z,16.27
2019-05-20T04:20:36.454Z,16.27
2019-05-20T04:23:05.408Z,17.63
2019-05-20T04:25:34.763Z,17.70
2019-05-20T04:28:03.659Z,16.57
2019-05-20T04:30:32.506Z,16.67
2019-05-20T04:33:01.425Z,17.23
2019-05-20T04:35:30.323Z,17.17
2019-05-20T04:37:59.261Z,17.53
2019-05-20T04:40:28.104Z,16.73
2019-05-20T04:42:57.011Z,16.57
2019-05-20T04:45:25.911Z,16.37
2019-05-20T04:47:54.827Z,16.57
2019-05-20T04:50:23.671Z,16.07
2019-05-20T04:52:52.599Z,15.40
2019-05-20T04:55:21.508Z,16.20
2019-05-20T04:57:50.383Z,15.10
2019-05-20T05:00:24.297Z,16.17
2019-05-20T05:02:53.175Z,115.23
2019-05-20T05:05:36.800Z,56.83
2019-05-20T05:07:52.555Z,37.77
2019-05-20T05:10:21.406Z,20.63
2019-05-20T05:12:50.357Z,14.23
2019-05-20T05:15:19.204Z,15.17
2019-05-20T05:17:48.137Z,15.23
2019-05-20T05:20:18.652Z,14.47
2019-05-20T05:22:47.675Z,15.13
2019-05-20T05:25:16.524Z,14.90
2019-05-20T05:27:45.400Z,15.53
2019-05-20T05:30:14.250Z,15.67
2019-05-20T05:32:43.800Z,16.83
2019-05-20T05:35:13.989Z,16.50
2019-05-20T05:37:43.048Z,16.07
2019-05-20T05:40:12.346Z,15.90
2019-05-20T05:42:41.199Z,15.83
2019-05-20T05:45:11.711Z,17.07
2019-05-20T05:47:40.870Z,17.40
2019-05-20T05:50:09.903Z,16.77
2019-05-20T05:52:38.779Z,17.80
2019-05-20T05:55:07.773Z,17.33
2019-05-20T05:57:36.615Z,18.40
2019-05-20T06:00:05.706Z,17.77
2019-05-20T06:02:34.549Z,18.03
2019-05-20T06:05:03.469Z,20.23
2019-05-20T06:07:32.314Z,21.50
2019-05-20T06:10:01.201Z,21.57
2019-05-20T06:12:30.060Z,21.50
2019-05-20T06:14:59.035Z,24.43
2019-05-20T06:17:27.875Z,26.23
2019-05-20T06:19:56.823Z,25.67
2019-05-20T06:22:25.672Z,26.27
2019-05-20T06:24:54.604Z,26.30
2019-05-20T06:27:23.453Z,27.57
2019-05-20T06:29:52.426Z,25.67
2019-05-20T06:32:21.328Z,26.70
2019-05-20T06:34:50.217Z,26.70
2019-05-20T06:37:20.928Z,26.57
2019-05-20T06:39:51.343Z,28.00
2019-05-20T06:42:20.342Z,26.37
2019-05-20T06:44:52.981Z,26.23
2019-05-20T06:47:19.763Z,26.53
2019-05-20T06:49:48.637Z,27.17
2019-05-20T06:52:34.398Z,25.40
2019-05-20T06:54:48.149Z,24.30
2019-05-20T06:57:17.013Z,27.33
2019-05-20T06:59:45.895Z,26.43
2019-05-20T07:02:14.733Z,26.17
2019-05-20T07:04:43.609Z,25.07
2019-05-20T07:07:20.786Z,26.80
2019-05-20T07:09:43.065Z,26.30
2019-05-20T07:12:12.125Z,26.03
2019-05-20T07:14:41.013Z,28.60
2019-05-20T07:17:09.896Z,27.60
2019-05-20T07:19:38.777Z,29.93
2019-05-20T07:22:07.625Z,31.70
2019-05-20T07:24:36.552Z,31.13
2019-05-20T07:27:05.407Z,28.60
2019-05-20T07:29:34.294Z,29.03
2019-05-20T07:32:03.159Z,28.50
2019-05-20T07:34:32.037Z,29.03
2019-05-20T07:37:03.789Z,26.97
2019-05-20T07:39:31.423Z,26.70
2019-05-20T07:42:00.267Z,27.53
2019-05-20T07:44:29.306Z,27.70
2019-05-20T07:46:58.245Z,28.57
2019-05-20T07:49:27.107Z,26.37
2019-05-20T07:51:56.160Z,27.17
2019-05-20T07:54:25.116Z,28.43
2019-05-20T07:56:55.233Z,28.00
2019-05-20T07:59:24.583Z,28.57
2019-05-20T08:01:53.493Z,29.93
2019-05-20T08:04:22.366Z,26.47
2019-05-20T08:06:51.235Z,27.43
2019-05-20T08:09:20.108Z,27.63
2019-05-20T08:11:48.980Z,27.00
2019-05-20T08:14:17.866Z,26.83
2019-05-20T08:16:46.726Z,27.20
2019-05-20T08:19:15.614Z,26.77
2019-05-20T08:21:44.502Z,27.80
2019-05-20T08:24:13.353Z,27.97
2019-05-20T08:26:42.259Z,26.43
2019-05-20T08:29:11.102Z,27.87
2019-05-20T08:31:39.983Z,26.17
2019-05-20T08:34:08.866Z,26.93
2019-05-20T08:36:37.739Z,27.37
2019-05-20T08:39:07.277Z,27.47
2019-05-20T08:41:36.366Z,26.87
2019-05-20T08:44:05.387Z,26.87
2019-05-20T08:46:34.247Z,28.73
2019-05-20T08:49:03.134Z,26.30
2019-05-20T08:51:32.184Z,26.43
2019-05-20T08:54:01.097Z,28.33
2019-05-20T08:56:29.964Z,27.30
2019-05-20T08:58:58.821Z,26.80
2019-05-20T09:01:27.750Z,27.40
2019-05-20T09:03:56.589Z,28.07
2019-05-20T09:06:25.481Z,27.57
2019-05-20T09:08:54.378Z,28.47
2019-05-20T09:11:23.294Z,26.97
2019-05-20T09:13:52.267Z,27.43
2019-05-20T09:16:21.277Z,26.70
2019-05-20T09:18:50.130Z,27.07
2019-05-20T09:21:19.065Z,25.80
2019-05-20T09:23:47.911Z,26.30
2019-05-20T09:26:16.849Z,28.33
2019-05-20T09:28:45.701Z,28.07
2019-05-20T09:31:14.735Z,29.83
2019-05-20T09:33:44.016Z,29.47
2019-05-20T09:36:12.986Z,30.33
2019-05-20T09:38:41.892Z,30.97
2019-05-20T09:41:10.871Z,32.47
2019-05-20T09:43:39.731Z,33.03
2019-05-20T09:46:08.702Z,33.13
2019-05-20T09:48:37.587Z,34.60
2019-05-20T09:51:06.525Z,33.80
2019-05-20T09:53:36.185Z,33.90
2019-05-20T09:56:05.068Z,35.03
2019-05-20T09:58:33.939Z,36.10
2019-05-20T10:01:02.819Z,33.87
2019-05-20T10:03:31.674Z,33.13
2019-05-20T10:06:00.561Z,33.17
2019-05-20T10:08:38.820Z,33.30
2019-05-20T10:11:00.579Z,36.10
2019-05-20T10:13:30.040Z,34.43
2019-05-20T10:15:58.936Z,33.83
2019-05-20T10:18:37.552Z,35.37
2019-05-20T10:20:58.402Z,34.97
2019-05-20T10:23:27.326Z,31.47
2019-05-20T10:25:56.171Z,33.70
2019-05-20T10:28:25.078Z,35.13
2019-05-20T10:30:53.925Z,33.80
2019-05-20T10:33:22.801Z,36.30
2019-05-20T10:35:51.705Z,36.47
2019-05-20T10:38:20.607Z,35.63
2019-05-20T10:40:49.467Z,38.60
2019-05-20T10:43:18.342Z,38.10
2019-05-20T10:45:47.235Z,36.30
2019-05-20T10:48:16.184Z,36.40
2019-05-20T10:50:45.114Z,36.03
2019-05-20T10:53:14.017Z,36.47
2019-05-20T10:55:42.865Z,35.53
2019-05-20T10:58:11.742Z,36.77
2019-05-20T11:00:40.617Z,37.27
2019-05-20T11:03:09.522Z,37.47
2019-05-20T11:05:38.433Z,38.60
2019-05-20T11:08:07.351Z,39.13
2019-05-20T11:10:36.260Z,38.87
2019-05-20T11:13:05.143Z,39.90
2019-05-20T11:15:33.996Z,38.13
2019-05-20T11:18:02.876Z,38.97
2019-05-20T11:20:31.738Z,38.60
2019-05-20T11:23:01.334Z,37.93
2019-05-20T11:25:30.373Z,37.43
2019-05-20T11:27:59.276Z,38.83
2019-05-20T11:30:28.308Z,36.77
2019-05-20T11:32:57.252Z,36.67
2019-05-20T11:35:26.091Z,36.00
2019-05-20T11:37:54.998Z,37.30
2019-05-20T11:40:23.930Z,37.90
2019-05-20T11:42:52.845Z,37.17
2019-05-20T11:45:21.718Z,36.00
2019-05-20T11:47:50.613Z,35.30
2019-05-20T11:50:19.684Z,35.73
2019-05-20T11:52:48.588Z,37.83
2019-05-20T11:55:17.481Z,35.07
2019-05-20T11:57:46.358Z,34.87
2019-05-20T12:00:15.439Z,32.27
2019-05-20T12:02:44.357Z,33.87
2019-05-20T12:05:13.327Z,35.43
2019-05-20T12:07:42.231Z,33.80
2019-05-20T12:10:11.187Z,35.47
2019-05-20T12:12:40.088Z,34.70
2019-05-20T12:15:09.457Z,33.70
2019-05-20T12:17:38.357Z,33.33
2019-05-20T12:20:08.248Z,32.03
2019-05-20T12:22:38.308Z,30.17
2019-05-20T12:25:07.232Z,30.07
2019-05-20T12:27:36.176Z,31.83
2019-05-20T12:30:05.631Z,31.57
2019-05-20T12:32:34.505Z,31.63
2019-05-20T12:35:03.418Z,31.17
2019-05-20T12:37:32.282Z,30.67
2019-05-20T12:40:07.288Z,30.50
2019-05-20T12:42:31.676Z,30.10
2019-05-20T12:45:00.580Z,32.03
2019-05-20T12:47:29.434Z,30.40
2019-05-20T12:49:58.310Z,32.47
2019-05-20T12:52:27.161Z,33.97
2019-05-20T12:55:07.274Z,32.50
2019-05-20T12:57:26.558Z,33.63
2019-05-20T12:59:55.443Z,31.00
2019-05-20T13:02:24.313Z,32.17
2019-05-20T13:04:53.272Z,32.60
2019-05-20T13:07:22.248Z,34.43
2019-05-20T13:09:51.129Z,32.63
2019-05-20T13:12:20.037Z,35.53
2019-05-20T13:14:49.096Z,35.40
2019-05-20T13:17:17.939Z,34.07
2019-05-20T13:19:46.834Z,34.87
2019-05-20T13:22:15.685Z,34.80
2019-05-20T13:24:44.563Z,35.37
2019-05-20T13:27:13.441Z,34.77
2019-05-20T13:29:42.364Z,34.00
2019-05-20T13:32:11.203Z,33.77
2019-05-20T13:34:40.084Z,36.17
2019-05-20T13:37:08.943Z,36.07
2019-05-20T13:39:39.394Z,36.00
2019-05-20T13:42:08.243Z,35.70
2019-05-20T13:44:37.240Z,37.33
2019-05-20T13:47:06.064Z,38.40
2019-05-20T13:49:34.959Z,36.50
2019-05-20T13:52:03.832Z,36.37
2019-05-20T13:54:32.716Z,36.23
2019-05-20T13:57:01.567Z,34.90
2019-05-20T13:59:30.451Z,35.47
2019-05-20T14:01:59.422Z,36.47
2019-05-20T14:04:28.332Z,35.77
2019-05-20T14:06:57.175Z,36.37
2019-05-20T14:09:26.113Z,35.03
2019-05-20T14:11:54.964Z,37.30
2019-05-20T14:14:23.888Z,35.17
2019-05-20T14:16:52.743Z,36.70
2019-05-20T14:19:22.798Z,35.77
2019-05-20T14:21:51.771Z,34.47
2019-05-20T14:24:20.670Z,35.03
2019-05-20T14:26:49.508Z,34.20
2019-05-20T14:29:18.396Z,35.10
2019-05-20T14:31:47.241Z,34.47
2019-05-20T14:34:16.145Z,32.87
2019-05-20T14:36:45.019Z,34.13
2019-05-20T14:39:13.889Z,33.97
2019-05-20T14:41:45.984Z,33.53
2019-05-20T14:44:14.613Z,34.47
2019-05-20T14:46:43.562Z,32.80
2019-05-20T14:49:14.521Z,34.47
2019-05-20T14:51:43.388Z,35.63
2019-05-20T14:54:12.266Z,35.77
2019-05-20T14:56:41.135Z,35.97
2019-05-20T14:59:10.203Z,35.17
2019-05-20T15:01:39.065Z,36.87
2019-05-20T15:04:07.959Z,38.53
2019-05-20T15:06:36.818Z,38.37
2019-05-20T15:09:06.413Z,37.87
2019-05-20T15:11:38.572Z,37.83
2019-05-20T15:14:06.072Z,39.90
2019-05-20T15:16:34.958Z,40.07
2019-05-20T15:19:03.799Z,40.43
2019-05-20T15:21:33.099Z,41.47
2019-05-20T15:24:02.115Z,43.13
2019-05-20T15:26:31.070Z,43.10
2019-05-20T15:28:59.930Z,43.30
2019-05-20T15:31:28.793Z,43.07
2019-05-20T15:33:57.632Z,44.50
2019-05-20T15:36:26.516Z,44.63
2019-05-20T15:38:55.399Z,45.03
2019-05-20T15:41:24.264Z,47.67
2019-05-20T15:43:53.176Z,50.10
2019-05-20T15:46:22.127Z,52.17
2019-05-20T15:48:51.024Z,52.10
2019-05-20T15:51:19.948Z,52.80
2019-05-20T15:53:48.795Z,36.57
2019-05-20T15:56:17.663Z,30.60
2019-05-20T15:58:46.539Z,18.53
2019-05-20T16:01:15.457Z,10.83
2019-05-20T16:03:44.300Z,8.77
2019-05-20T16:06:13.328Z,7.90
2019-05-20T16:08:42.191Z,7.77
2019-05-20T16:11:11.094Z,8.03
2019-05-20T16:13:39.943Z,8.93
2019-05-20T16:16:12.244Z,10.20
2019-05-20T16:18:39.428Z,10.67
2019-05-20T16:21:08.418Z,12.50
2019-05-20T16:23:37.292Z,11.50
2019-05-20T16:26:06.165Z,10.20
2019-05-20T16:28:35.008Z,8.80
2019-05-20T16:31:03.879Z,7.37
2019-05-20T16:33:32.797Z,8.03
2019-05-20T16:36:01.684Z,7.53
2019-05-20T16:38:30.539Z,8.40
2019-05-20T16:40:59.410Z,8.13
2019-05-20T16:43:28.287Z,7.67
2019-05-20T16:45:57.162Z,7.90
2019-05-20T16:48:26.017Z,8.17
2019-05-20T16:50:55.132Z,7.80
2019-05-20T16:53:24.100Z,9.20
2019-05-20T16:55:52.974Z,9.60
2019-05-20T16:58:21.824Z,9.43
2019-05-20T17:00:50.718Z,9.10
2019-05-20T17:03:19.555Z,8.13
2019-05-20T17:05:48.434Z,9.23
2019-05-20T17:08:17.363Z,8.67
2019-05-20T17:10:46.260Z,7.83
2019-05-20T17:13:15.126Z,7.17
2019-05-20T17:15:43.996Z,7.60
2019-05-20T17:18:12.843Z,7.30
2019-05-20T17:20:45.786Z,7.40
2019-05-20T17:23:12.516Z,7.67
2019-05-20T17:25:41.433Z,7.60
2019-05-20T17:28:10.270Z,8.53
2019-05-20T17:30:45.616Z,8.03
2019-05-20T17:33:09.748Z,9.10
2019-05-20T17:35:38.658Z,8.03
2019-05-20T17:38:07.548Z,8.80
2019-05-20T17:40:36.447Z,8.10
2019-05-20T17:43:05.358Z,7.67
2019-05-20T17:45:34.292Z,6.30
2019-05-20T17:48:03.273Z,8.03
2019-05-20T17:50:32.308Z,7.53
2019-05-20T17:53:01.174Z,7.10
2019-05-20T17:55:30.150Z,6.83
2019-05-20T17:57:59.092Z,6.77
2019-05-20T18:00:27.961Z,5.80
2019-05-20T18:02:56.828Z,5.80
2019-05-20T18:05:25.665Z,5.97
2019-05-20T18:07:54.543Z,7.10
2019-05-20T18:10:25.379Z,7.30
2019-05-20T18:12:54.262Z,6.70
2019-05-20T18:15:23.110Z,6.60
2019-05-20T18:17:52.002Z,7.63
2019-05-20T18:20:21.048Z,7.20
2019-05-20T18:22:50.097Z,7.57
2019-05-20T18:25:18.953Z,8.10
2019-05-20T18:27:47.987Z,8.27
2019-05-20T18:30:16.848Z,8.90
2019-05-20T18:32:45.729Z,8.70
2019-05-20T18:35:14.582Z,8.93
2019-05-20T18:37:43.442Z,8.73
2019-05-20T18:40:14.376Z,8.20
2019-05-20T18:42:42.944Z,7.93
2019-05-20T18:45:12.117Z,8.17
2019-05-20T18:47:41.004Z,8.43
2019-05-20T18:50:10.056Z,8.67
2019-05-20T18:52:38.931Z,8.97
2019-05-20T18:55:07.890Z,9.27
2019-05-20T18:57:36.783Z,8.90
2019-05-20T19:00:06.263Z,9.37
2019-05-20T19:02:35.149Z,11.47
2019-05-20T19:05:04.201Z,11.47
2019-05-20T19:07:33.141Z,12.40
2019-05-20T19:10:01.971Z,13.03
2019-05-20T19:12:30.893Z,13.13
2019-05-20T19:14:59.766Z,9.17
2019-05-20T19:17:28.703Z,11.20
2019-05-20T19:19:57.591Z,11.73
2019-05-20T19:22:26.493Z,9.93
2019-05-20T19:24:55.359Z,11.17
2019-05-20T19:27:24.263Z,11.03
2019-05-20T19:29:53.108Z,11.80
2019-05-20T19:32:22.515Z,13.47
2019-05-20T19:34:52.289Z,12.83
2019-05-20T19:37:21.166Z,14.13
2019-05-20T19:39:50.015Z,13.67
2019-05-20T19:42:19.019Z,14.37
2019-05-20T19:44:47.942Z,14.37
2019-05-20T19:47:16.848Z,14.73
2019-05-20T19:49:45.720Z,15.07
2019-05-20T19:52:14.625Z,14.97
2019-05-20T19:54:43.479Z,14.27
2019-05-20T19:57:12.336Z,14.13
2019-05-20T19:59:41.211Z,15.23
2019-05-20T20:02:17.591Z,14.83
2019-05-20T20:04:40.700Z,15.13
2019-05-20T20:07:09.578Z,14.03
2019-05-20T20:09:38.441Z,16.37
2019-05-20T20:12:07.386Z,16.00
2019-05-20T20:14:36.264Z,16.10
2019-05-20T20:17:05.118Z,15.00
2019-05-20T20:19:34.016Z,15.63
2019-05-20T20:22:02.871Z,14.93
2019-05-20T20:24:31.749Z,14.90
2019-05-20T20:27:00.607Z,13.83
2019-05-20T20:29:29.567Z,14.37
2019-05-20T20:31:58.457Z,13.77
2019-05-20T20:34:30.467Z,14.13
2019-05-20T20:36:57.922Z,13.77
2019-05-20T20:39:26.790Z,15.43
2019-05-20T20:41:55.682Z,14.97
2019-05-20T20:44:24.680Z,16.03
2019-05-20T20:46:53.526Z,14.97
2019-05-20T20:49:22.401Z,16.33
2019-05-20T20:51:51.257Z,15.37
2019-05-20T20:54:20.188Z,15.97
2019-05-20T20:56:49.104Z,15.70
2019-05-20T20:59:17.987Z,16.13
2019-05-20T21:01:46.843Z,15.80
2019-05-20T21:04:15.728Z,14.47
2019-05-20T21:06:44.623Z,13.80
2019-05-20T21:09:13.559Z,14.07
2019-05-20T21:11:42.474Z,12.10
2019-05-20T21:14:11.398Z,12.33
2019-05-20T21:16:40.302Z,11.30
2019-05-20T21:19:09.187Z,11.50
2019-05-20T21:21:38.078Z,10.40
2019-05-20T21:24:07.070Z,10.73
2019-05-20T21:26:35.911Z,11.50
2019-05-20T21:29:04.881Z,11.40
2019-05-20T21:31:33.792Z,12.80
2019-05-20T21:34:02.674Z,12.27
2019-05-20T21:36:46.169Z,15.27
2019-05-20T21:39:02.160Z,15.53
2019-05-20T21:41:30.993Z,17.87
2019-05-20T21:43:59.939Z,17.43
2019-05-20T21:46:28.851Z,16.77
2019-05-20T21:48:57.737Z,16.70
2019-05-20T21:51:26.606Z,15.70
2019-05-20T21:53:55.516Z,16.03
2019-05-20T21:56:24.404Z,16.53
2019-05-20T21:58:53.278Z,16.37
2019-05-20T22:01:22.171Z,14.97
2019-05-20T22:03:51.069Z,16.80
2019-05-20T22:06:19.940Z,16.53
2019-05-20T22:08:48.879Z,17.83
2019-05-20T22:11:17.736Z,18.47
2019-05-20T22:13:46.629Z,16.83
2019-05-20T22:16:15.496Z,18.90
2019-05-20T22:18:44.403Z,19.17
2019-05-20T22:21:14.820Z,20.90
2019-05-20T22:23:54.492Z,20.40
2019-05-20T22:26:23.341Z,19.87
2019-05-20T22:28:52.223Z,19.80
2019-05-20T22:31:21.141Z,19.03
2019-05-20T22:33:50.024Z,21.40
2019-05-20T22:36:18.893Z,20.40
2019-05-20T22:38:47.807Z,20.37
2019-05-20T22:41:16.650Z,20.87
2019-05-20T22:43:45.537Z,19.60
2019-05-20T22:46:14.454Z,19.37
2019-05-20T22:48:43.340Z,21.43
2019-05-20T22:51:12.180Z,22.50
2019-05-20T22:53:41.033Z,25.80
2019-05-20T22:56:09.920Z,26.93
2019-05-20T22:58:38.816Z,27.70
2019-05-20T23:01:07.704Z,30.40
2019-05-20T23:03:36.573Z,29.70
2019-05-20T23:06:05.449Z,33.10
2019-05-20T23:08:34.298Z,30.77
2019-05-20T23:11:03.186Z,28.97
2019-05-20T23:13:32.082Z,30.17
2019-05-20T23:16:00.985Z,29.40
2019-05-20T23:18:29.834Z,27.07
2019-05-20T23:20:58.738Z,26.30
2019-05-20T23:23:27.678Z,25.03
2019-05-20T23:25:56.567Z,21.30
2019-05-20T23:28:25.502Z,18.90
2019-05-20T23:30:54.471Z,15.17
2019-05-20T23:33:23.333Z,16.27
2019-05-20T23:35:52.214Z,13.73
2019-05-20T23:38:21.062Z,12.37
2019-05-20T23:40:50.001Z,11.17
2019-05-20T23:43:18.871Z,11.97
2019-05-20T23:45:47.787Z,12.17
2019-05-20T23:48:16.664Z,8.67
2019-05-20T23:50:45.534Z,6.73
2019-05-20T23:53:14.390Z,7.20
2019-05-20T23:55:43.393Z,10.40
2019-05-20T23:58:12.239Z,10.20
